Strongs, Michigan
Current Conditions -  °F | °C
As of 8:14 PM on Saturday 25 Oct 2014 (Local Time) from KERY Reporting Station
Overcast Overcast  
Wind Chill: 50°   Ceiling: 7000
Heat Index: 50°   Visibility: 10mi
Dew Point: 33°   Wind: 22mph
Humidity: 53%   Direction: 280°W
Pressure: 29.72"   Gusts: 31mph
Location:  46.36°N, 84.97°W
Report Text: KERY 260014Z AUTO 28019G27KT 10SM OVC070 10/01 A2972 RMK AO2 T01000007
Loading
Personal Weather Stations






























Interactive Weather Map
Tropical Storm Tracking
New forecast layout! Learn more

10-Day Weather Forecast

Advertisements
Track Severe Weather on mobile